Terminal Aerodrome Forecast
Issued by NWS

Home | Current Version | Previous Version | Text Only | Print | Product List | Glossary On
Versions: 1 2 3 4 5 6 7 8 9 10 11 12 13 14 15 16 17 18 19 20 21 22 23 24 25 26 27 28 29 30 31
000
FTUS42 KMFL 220031 AAA
TAFFXE
TAF AMD
KFXE 220031Z 2201/2224 07008KT P6SM SHRA SCT025 BKN050
      TEMPO 2201/2203 07015G25KT 4SM TSRA BKN025CB
     FM220600 07009KT P6SM VCSH SCT025 SCT060
     FM221500 10012KT P6SM VCTS SCT030CB BKN050 PROB30 2215/2221 4SM
      TSRA BKN025CB=

USA.gov is the U.S. government's official web portal to all federal, state and local government web resources and services.